Aeroporto :
LOGIN :

Iscrizione | Disclaimer

   EN    FR    IT 

 










Sommario :    VFR   VFR Marginale   IFR   IFR Intensivo   IFR Molto Intensivo
Visibilità : 
Base nubi : 
>= 8 km
>= 3000ft
5 / 8 km
1000 / 3000 ft
1500m / 5 km
500 / 1000 ft
800 / 1500m
200 / 500 ft
< 800m
< 200 ft
Simboli :   Temporali  Nebbia  Neve Forte  Precipitazioni Forti  Vento > 20 kt
SIGMETs :   Varie  Temporali  Ghiacco  Turbolenza  Onda orograficha  Ceneri Vulcaniche






- Altitudine del aeroporto : 299 ft
- Codice IATA : EDM


LFRI - La Roche Sur Yon - Les Ajoncs

ULTIMO METAR :
  • 121800Z AUTO 19003KT CAVOK 27/19 Q1011 TEMPO 4500 -SHRA SCT040 BKN060TCU

METARs OBSOLETI :
  • 121730Z AUTO 17005KT 120V200 9999 FEW041 27/18 Q1011 TEMPO 4500 -SHRA SCT040 BKN060TCU
  • 121700Z AUTO 20005KT 160V220 9999 FEW040 27/18 Q1011 TEMPO VRB15G25KT 2500 TSRAGR SCT020 BKN050CB
  • 121630Z AUTO 19004KT 9999 FEW039 26/18 Q1010 TEMPO VRB15G25KT 2500 TSRAGR SCT020 BKN050CB
  • 121600Z AUTO 16004KT 110V220 9999 FEW034 27/18 Q1011 TEMPO VRB15G25KT 2500 TSRAGR SCT020 BKN050CB
  • 121530Z AUTO VRB03KT CAVOK 27/19 Q1011 TEMPO VRB15G25KT 2500 TSRAGR SCT020 BKN050CB

TAF TAF LFRI
Valido dal 12 a 18 ore il 13 a 18 ore UTC


121700Z 1218/1318 VRB05KT 9999 FEW040
TEMPO 1218/1318 4500 -SHRA SCT040 BKN060TCU
PROB30
TEMPO 1300/1318 2500 TSRA BKN009 BKN020CB
BECMG 1312/1314 29010KT



MetMap, La meteo Aeronautica in un colpo d'occhio ! - Copyright ORBIFLY Dicembre 2007 - Disclaimer

ORBIFLY MET'MAP TEAM :

Programmazione e sviluppo : Alexandra Zaïnal
Concezione : Baudouin d'Aumeries
Aiuto per la programmazione : Marc-Olivier Méhu
Supporto tecnico e logistico : Manuel Goepfert
Aiuto per la traduzione : Arnaldo La Scala

Contatto : metmap@orbifly.com




FONTI E CREDITI :

   NOAA